sensor_id;sensor_type;location;lat;lon;timestamp;pressure;altitude;pressure_sealevel;temperature;humidity
44734;BME280;30462;52.446;-1.930;2022-10-16T00:00:18;98796.64063;;;;
44734;BME280;30462;52.446;-1.930;2022-10-16T00:01:18;98803.92188;;;;
44734;BME280;30462;52.446;-1.930;2022-10-16T00:02:18;98800.48047;;;;
44734;BME280;30462;52.446;-1.930;2022-10-16T00:03:17;98801.63672;;;;
44734;BME280;30462;52.446;-1.930;2022-10-16T00:04:18;98808.13672;;;;
44734;BME280;30462;52.446;-1.930;2022-10-16T00:05:18;98808.13672;;;;
44734;BME280;30462;52.446;-1.930;2022-10-16T00:06:18;98813.05859;;;;
44734;BME280;30462;52.446;-1.930;2022-10-16T00:07:18;98810.77734;;;;
44734;BME280;30462;52.446;-1.930;2022-10-16T00:08:18;98813.64063;;;;
44734;BME280;30462;52.446;-1.930;2022-10-16T00:09:18;98817.5;;;;
44734;BME280;30462;52.446;-1.930;2022-10-16T00:10:17;98815.80859;;;;
44734;BME280;30462;52.446;-1.930;2022-10-16T00:11:19;98818.45313;;;;
44734;BME280;30462;52.446;-1.930;2022-10-16T00:12:18;98816.30469;;;;
44734;BME280;30462;52.446;-1.930;2022-10-16T00:13:18;98816.12109;;;;
44734;BME280;30462;52.446;-1.930;2022-10-16T00:14:17;98819.17578;;;;
44734;BME280;30462;52.446;-1.930;2022-10-16T00:15:18;98822.61328;;;;
44734;BME280;30462;52.446;-1.930;2022-10-16T00:16:18;98825.39453;;;;
44734;BME280;30462;52.446;-1.930;2022-10-16T00:17:18;98826.38672;;;;
44734;BME280;30462;52.446;-1.930;2022-10-16T00:18:18;98829.16797;;;;
44734;BME280;30462;52.446;-1.930;2022-10-16T00:19:17;98833.4375;;;;
44734;BME280;30462;52.446;-1.930;2022-10-16T00:20:18;98824.75;;;;
44734;BME280;30462;52.446;-1.930;2022-10-16T00:21:19;98827.43359;;;;
44734;BME280;30462;52.446;-1.930;2022-10-16T00:22:17;98832.62109;;;;
44734;BME280;30462;52.446;-1.930;2022-10-16T00:23:18;98835.89453;;;;
44734;BME280;30462;52.446;-1.930;2022-10-16T00:24:18;98835.12109;;;;
44734;BME280;30462;52.446;-1.930;2022-10-16T00:25:17;98839.35938;;;;
44734;BME280;30462;52.446;-1.930;2022-10-16T00:26:18;98841.09375;;;;
44734;BME280;30462;52.446;-1.930;2022-10-16T00:27:18;98845.96094;;;;
44734;BME280;30462;52.446;-1.930;2022-10-16T00:28:18;98842.76172;;;;
44734;BME280;30462;52.446;-1.930;2022-10-16T00:29:18;98847.35547;;;;
44734;BME280;30462;52.446;-1.930;2022-10-16T00:30:18;98842.82813;;;;
44734;BME280;30462;52.446;-1.930;2022-10-16T00:31:19;98841.78906;;;;
44734;BME280;30462;52.446;-1.930;2022-10-16T00:32:18;98847.59766;;;;
44734;BME280;30462;52.446;-1.930;2022-10-16T00:33:19;98841.53516;;;;
44734;BME280;30462;52.446;-1.930;2022-10-16T00:34:17;98847.03516;;;;
44734;BME280;30462;52.446;-1.930;2022-10-16T00:35:18;98849.62891;;;;
44734;BME280;30462;52.446;-1.930;2022-10-16T00:36:19;98843.32031;;;;
44734;BME280;30462;52.446;-1.930;2022-10-16T00:37:18;98839.75391;;;;
44734;BME280;30462;52.446;-1.930;2022-10-16T00:38:18;98848.5;;;;
44734;BME280;30462;52.446;-1.930;2022-10-16T00:39:18;98846.73828;;;;
44734;BME280;30462;52.446;-1.930;2022-10-16T00:40:18;98845.21484;;;;
44734;BME280;30462;52.446;-1.930;2022-10-16T00:41:18;98851.59766;;;;
44734;BME280;30462;52.446;-1.930;2022-10-16T00:42:18;98848.10938;;;;
44734;BME280;30462;52.446;-1.930;2022-10-16T00:45:18;98836.70313;;;;
44734;BME280;30462;52.446;-1.930;2022-10-16T00:46:19;98850.13281;;;;
44734;BME280;30462;52.446;-1.930;2022-10-16T00:47:19;98849.46875;;;;
44734;BME280;30462;52.446;-1.930;2022-10-16T00:48:17;98847.19141;;;;
44734;BME280;30462;52.446;-1.930;2022-10-16T00:49:18;98851.28516;;;;
44734;BME280;30462;52.446;-1.930;2022-10-16T00:50:21;98864.93359;;;;
44734;BME280;30462;52.446;-1.930;2022-10-16T00:51:18;98846.14844;;;;
44734;BME280;30462;52.446;-1.930;2022-10-16T00:52:18;98856.03516;;;;
44734;BME280;30462;52.446;-1.930;2022-10-16T00:53:18;98855.76953;;;;
44734;BME280;30462;52.446;-1.930;2022-10-16T00:54:21;98852.99219;;;;
44734;BME280;30462;52.446;-1.930;2022-10-16T00:55:18;98857.78516;;;;
44734;BME280;30462;52.446;-1.930;2022-10-16T00:56:18;98857.60938;;;;
44734;BME280;30462;52.446;-1.930;2022-10-16T00:57:18;98859.58203;;;;
44734;BME280;30462;52.446;-1.930;2022-10-16T00:58:18;98859;;;;
44734;BME280;30462;52.446;-1.930;2022-10-16T00:59:20;98861.46875;;;;
44734;BME280;30462;52.446;-1.930;2022-10-16T01:00:19;98855.82422;;;;
44734;BME280;30462;52.446;-1.930;2022-10-16T01:01:18;98860.69922;;;;
44734;BME280;30462;52.446;-1.930;2022-10-16T01:02:18;98864.50781;;;;
44734;BME280;30462;52.446;-1.930;2022-10-16T01:04:18;98861.67188;;;;
44734;BME280;30462;52.446;-1.930;2022-10-16T01:05:19;98866.59375;;;;
44734;BME280;30462;52.446;-1.930;2022-10-16T01:06:21;98868.07031;;;;
44734;BME280;30462;52.446;-1.930;2022-10-16T01:08:22;98870.375;;;;
44734;BME280;30462;52.446;-1.930;2022-10-16T01:09:20;98879.09766;;;;
44734;BME280;30462;52.446;-1.930;2022-10-16T01:10:21;98868.44922;;;;
44734;BME280;30462;52.446;-1.930;2022-10-16T01:11:21;98869.61328;;;;
44734;BME280;30462;52.446;-1.930;2022-10-16T01:12:22;98871.22656;;;;
44734;BME280;30462;52.446;-1.930;2022-10-16T01:13:20;98870.80078;;;;
44734;BME280;30462;52.446;-1.930;2022-10-16T01:14:21;98866.75391;;;;
44734;BME280;30462;52.446;-1.930;2022-10-16T01:15:20;98872.53906;;;;
44734;BME280;30462;52.446;-1.930;2022-10-16T01:16:19;98880.62109;;;;
44734;BME280;30462;52.446;-1.930;2022-10-16T01:17:21;98883.32813;;;;
44734;BME280;30462;52.446;-1.930;2022-10-16T01:18:20;98885.83594;;;;
44734;BME280;30462;52.446;-1.930;2022-10-16T01:19:23;98882.58984;;;;
44734;BME280;30462;52.446;-1.930;2022-10-16T01:20:21;98881.35156;;;;
44734;BME280;30462;52.446;-1.930;2022-10-16T01:21:21;98875.07031;;;;
44734;BME280;30462;52.446;-1.930;2022-10-16T01:22:18;98880.52344;;;;
44734;BME280;30462;52.446;-1.930;2022-10-16T01:24:22;98890.39453;;;;
44734;BME280;30462;52.446;-1.930;2022-10-16T01:25:21;98886.05469;;;;
44734;BME280;30462;52.446;-1.930;2022-10-16T01:27:20;98895.97266;;;;
44734;BME280;30462;52.446;-1.930;2022-10-16T01:28:19;98905.26563;;;;
44734;BME280;30462;52.446;-1.930;2022-10-16T01:29:18;98902.16016;;;;
44734;BME280;30462;52.446;-1.930;2022-10-16T01:30:20;98899.13672;;;;
44734;BME280;30462;52.446;-1.930;2022-10-16T01:31:18;98905.64844;;;;
44734;BME280;30462;52.446;-1.930;2022-10-16T01:32:19;98902.32422;;;;
44734;BME280;30462;52.446;-1.930;2022-10-16T01:33:20;98903.09766;;;;
44734;BME280;30462;52.446;-1.930;2022-10-16T01:34:20;98898.10156;;;;
44734;BME280;30462;52.446;-1.930;2022-10-16T01:35:18;98903.50781;;;;
44734;BME280;30462;52.446;-1.930;2022-10-16T01:36:19;98907.86719;;;;
44734;BME280;30462;52.446;-1.930;2022-10-16T01:37:20;98908.51172;;;;
44734;BME280;30462;52.446;-1.930;2022-10-16T01:38:19;98912.07422;;;;
44734;BME280;30462;52.446;-1.930;2022-10-16T01:39:18;98907.90625;;;;
44734;BME280;30462;52.446;-1.930;2022-10-16T01:40:19;98916.8125;;;;
44734;BME280;30462;52.446;-1.930;2022-10-16T01:41:19;98915.61719;;;;
44734;BME280;30462;52.446;-1.930;2022-10-16T01:42:19;98922.26953;;;;
44734;BME280;30462;52.446;-1.930;2022-10-16T01:43:19;98917.73438;;;;
44734;BME280;30462;52.446;-1.930;2022-10-16T01:44:18;98921.22656;;;;
44734;BME280;30462;52.446;-1.930;2022-10-16T01:45:18;98917.01172;;;;
44734;BME280;30462;52.446;-1.930;2022-10-16T01:46:18;98921.32813;;;;
44734;BME280;30462;52.446;-1.930;2022-10-16T01:47:17;98916.80078;;;;
44734;BME280;30462;52.446;-1.930;2022-10-16T01:48:18;98916.48047;;;;
44734;BME280;30462;52.446;-1.930;2022-10-16T01:49:18;98912.86328;;;;
44734;BME280;30462;52.446;-1.930;2022-10-16T01:50:18;98911.10938;;;;
44734;BME280;30462;52.446;-1.930;2022-10-16T01:51:18;98907.28906;;;;
44734;BME280;30462;52.446;-1.930;2022-10-16T01:52:19;98918.76563;;;;
44734;BME280;30462;52.446;-1.930;2022-10-16T01:53:18;98919.21875;;;;
44734;BME280;30462;52.446;-1.930;2022-10-16T01:54:18;98922.43359;;;;
44734;BME280;30462;52.446;-1.930;2022-10-16T01:55:20;98925.69531;;;;
44734;BME280;30462;52.446;-1.930;2022-10-16T01:56:18;98930.125;;;;
44734;BME280;30462;52.446;-1.930;2022-10-16T01:57:18;98933.18359;;;;
44734;BME280;30462;52.446;-1.930;2022-10-16T01:58:18;98935.01172;;;;
44734;BME280;30462;52.446;-1.930;2022-10-16T01:59:20;98934.87109;;;;
44734;BME280;30462;52.446;-1.930;2022-10-16T02:00:18;98934.30859;;;;
44734;BME280;30462;52.446;-1.930;2022-10-16T02:01:19;98929.70313;;;;
44734;BME280;30462;52.446;-1.930;2022-10-16T02:02:18;98931.73828;;;;
44734;BME280;30462;52.446;-1.930;2022-10-16T02:03:18;98926.32813;;;;
44734;BME280;30462;52.446;-1.930;2022-10-16T02:04:19;98929.23047;;;;
44734;BME280;30462;52.446;-1.930;2022-10-16T02:05:19;98931.96875;;;;
44734;BME280;30462;52.446;-1.930;2022-10-16T02:06:17;98931.50781;;;;
44734;BME280;30462;52.446;-1.930;2022-10-16T02:07:18;98928.84375;;;;
44734;BME280;30462;52.446;-1.930;2022-10-16T02:08:18;98923.11719;;;;
44734;BME280;30462;52.446;-1.930;2022-10-16T02:09:18;98923.05078;;;;
44734;BME280;30462;52.446;-1.930;2022-10-16T02:10:18;98923.45313;;;;
44734;BME280;30462;52.446;-1.930;2022-10-16T02:11:18;98928.55859;;;;
44734;BME280;30462;52.446;-1.930;2022-10-16T02:12:21;98928.74609;;;;
44734;BME280;30462;52.446;-1.930;2022-10-16T02:13:22;98930.60547;;;;
44734;BME280;30462;52.446;-1.930;2022-10-16T02:14:18;98938.07813;;;;
44734;BME280;30462;52.446;-1.930;2022-10-16T02:15:18;98933.21875;;;;
44734;BME280;30462;52.446;-1.930;2022-10-16T02:16:18;98943.39453;;;;
44734;BME280;30462;52.446;-1.930;2022-10-16T02:17:18;98944.80859;;;;
44734;BME280;30462;52.446;-1.930;2022-10-16T02:18:18;98949.75781;;;;
44734;BME280;30462;52.446;-1.930;2022-10-16T02:19:18;98950.47656;;;;
44734;BME280;30462;52.446;-1.930;2022-10-16T02:20:19;98953.80469;;;;
44734;BME280;30462;52.446;-1.930;2022-10-16T02:21:19;98954.53516;;;;
44734;BME280;30462;52.446;-1.930;2022-10-16T02:22:19;98960.57813;;;;
44734;BME280;30462;52.446;-1.930;2022-10-16T02:23:19;98962.78125;;;;
44734;BME280;30462;52.446;-1.930;2022-10-16T02:24:22;98954.6875;;;;
44734;BME280;30462;52.446;-1.930;2022-10-16T02:25:19;98969.375;;;;
44734;BME280;30462;52.446;-1.930;2022-10-16T02:26:20;98970.36328;;;;
44734;BME280;30462;52.446;-1.930;2022-10-16T02:27:22;98970.42578;;;;
44734;BME280;30462;52.446;-1.930;2022-10-16T02:28:19;98976.33594;;;;
44734;BME280;30462;52.446;-1.930;2022-10-16T02:29:19;98977.89844;;;;
44734;BME280;30462;52.446;-1.930;2022-10-16T02:30:19;98973.14844;;;;
44734;BME280;30462;52.446;-1.930;2022-10-16T02:31:18;98981.40625;;;;
44734;BME280;30462;52.446;-1.930;2022-10-16T02:32:19;98988.88672;;;;
44734;BME280;30462;52.446;-1.930;2022-10-16T02:33:18;98987.625;;;;
44734;BME280;30462;52.446;-1.930;2022-10-16T02:34:18;98987.56641;;;;
44734;BME280;30462;52.446;-1.930;2022-10-16T02:35:18;98984.73828;;;;
44734;BME280;30462;52.446;-1.930;2022-10-16T02:36:18;98983.48828;;;;
44734;BME280;30462;52.446;-1.930;2022-10-16T02:37:17;98985.28906;;;;
44734;BME280;30462;52.446;-1.930;2022-10-16T02:38:17;98983.51563;;;;
44734;BME280;30462;52.446;-1.930;2022-10-16T02:39:18;98981.62109;;;;
44734;BME280;30462;52.446;-1.930;2022-10-16T02:40:18;98987.80078;;;;
44734;BME280;30462;52.446;-1.930;2022-10-16T02:41:18;98987.30859;;;;
44734;BME280;30462;52.446;-1.930;2022-10-16T02:42:18;98988.33594;;;;
44734;BME280;30462;52.446;-1.930;2022-10-16T02:43:18;98989.08984;;;;
44734;BME280;30462;52.446;-1.930;2022-10-16T02:44:18;98988.44531;;;;
44734;BME280;30462;52.446;-1.930;2022-10-16T02:45:19;98992.21875;;;;
44734;BME280;30462;52.446;-1.930;2022-10-16T02:46:17;98988.58203;;;;
44734;BME280;30462;52.446;-1.930;2022-10-16T02:47:18;98988.33984;;;;
44734;BME280;30462;52.446;-1.930;2022-10-16T02:48:17;98993.71875;;;;
44734;BME280;30462;52.446;-1.930;2022-10-16T02:49:18;98995.08594;;;;
44734;BME280;30462;52.446;-1.930;2022-10-16T02:50:18;98992.10156;;;;
44734;BME280;30462;52.446;-1.930;2022-10-16T02:51:17;98999.60938;;;;
44734;BME280;30462;52.446;-1.930;2022-10-16T02:52:18;99008.15234;;;;
44734;BME280;30462;52.446;-1.930;2022-10-16T02:53:18;99000.37109;;;;
44734;BME280;30462;52.446;-1.930;2022-10-16T02:54:18;99005.69141;;;;
44734;BME280;30462;52.446;-1.930;2022-10-16T02:55:18;99006.46094;;;;
44734;BME280;30462;52.446;-1.930;2022-10-16T02:56:17;99011.58594;;;;
44734;BME280;30462;52.446;-1.930;2022-10-16T02:57:18;99007.60156;;;;
44734;BME280;30462;52.446;-1.930;2022-10-16T02:58:17;99009.80469;;;;
44734;BME280;30462;52.446;-1.930;2022-10-16T02:59:18;99010.83203;;;;
44734;BME280;30462;52.446;-1.930;2022-10-16T03:00:18;99016.56641;;;;
44734;BME280;30462;52.446;-1.930;2022-10-16T03:01:18;99017.21484;;;;
44734;BME280;30462;52.446;-1.930;2022-10-16T03:02:18;99021.97656;;;;
44734;BME280;30462;52.446;-1.930;2022-10-16T03:03:18;99025.67969;;;;
44734;BME280;30462;52.446;-1.930;2022-10-16T03:04:18;99027.74609;;;;
44734;BME280;30462;52.446;-1.930;2022-10-16T03:05:17;99028.50391;;;;
44734;BME280;30462;52.446;-1.930;2022-10-16T03:06:18;99028.78516;;;;
44734;BME280;30462;52.446;-1.930;2022-10-16T03:07:18;99033.23047;;;;
44734;BME280;30462;52.446;-1.930;2022-10-16T03:08:17;99037.69531;;;;
44734;BME280;30462;52.446;-1.930;2022-10-16T03:09:18;99039.98438;;;;
44734;BME280;30462;52.446;-1.930;2022-10-16T03:10:18;99041.52734;;;;
44734;BME280;30462;52.446;-1.930;2022-10-16T03:11:18;99046.41797;;;;
44734;BME280;30462;52.446;-1.930;2022-10-16T03:12:18;99043.91016;;;;
44734;BME280;30462;52.446;-1.930;2022-10-16T03:13:18;99051.60938;;;;
44734;BME280;30462;52.446;-1.930;2022-10-16T03:14:18;99045.38281;;;;
44734;BME280;30462;52.446;-1.930;2022-10-16T03:15:18;99055.16016;;;;
44734;BME280;30462;52.446;-1.930;2022-10-16T03:16:18;99054.45703;;;;
44734;BME280;30462;52.446;-1.930;2022-10-16T03:17:17;99064.15234;;;;
44734;BME280;30462;52.446;-1.930;2022-10-16T03:18:18;99066.45703;;;;
44734;BME280;30462;52.446;-1.930;2022-10-16T03:19:18;99064.21484;;;;
44734;BME280;30462;52.446;-1.930;2022-10-16T03:20:18;99064.16406;;;;
44734;BME280;30462;52.446;-1.930;2022-10-16T03:21:18;99062.96094;;;;
44734;BME280;30462;52.446;-1.930;2022-10-16T03:22:17;99063.34375;;;;
44734;BME280;30462;52.446;-1.930;2022-10-16T03:23:18;99060.21875;;;;
44734;BME280;30462;52.446;-1.930;2022-10-16T03:24:18;99065.05078;;;;
44734;BME280;30462;52.446;-1.930;2022-10-16T03:25:18;99064.60156;;;;
44734;BME280;30462;52.446;-1.930;2022-10-16T03:26:18;99068.09766;;;;
44734;BME280;30462;52.446;-1.930;2022-10-16T03:27:18;99069.94531;;;;
44734;BME280;30462;52.446;-1.930;2022-10-16T03:28:19;99075.22656;;;;
44734;BME280;30462;52.446;-1.930;2022-10-16T03:29:18;99078.72266;;;;
44734;BME280;30462;52.446;-1.930;2022-10-16T03:30:17;99080.15234;;;;
44734;BME280;30462;52.446;-1.930;2022-10-16T03:31:18;99078.48438;;;;
44734;BME280;30462;52.446;-1.930;2022-10-16T03:32:18;99081.51563;;;;
44734;BME280;30462;52.446;-1.930;2022-10-16T03:33:18;99086.95703;;;;
44734;BME280;30462;52.446;-1.930;2022-10-16T03:34:18;99092.14844;;;;
44734;BME280;30462;52.446;-1.930;2022-10-16T03:35:18;99092.70313;;;;
44734;BME280;30462;52.446;-1.930;2022-10-16T03:36:18;99093.10938;;;;
44734;BME280;30462;52.446;-1.930;2022-10-16T03:37:18;99093.12891;;;;
44734;BME280;30462;52.446;-1.930;2022-10-16T03:38:18;99094.82422;;;;
44734;BME280;30462;52.446;-1.930;2022-10-16T03:39:18;99098.54297;;;;
44734;BME280;30462;52.446;-1.930;2022-10-16T03:40:18;99098.40625;;;;
44734;BME280;30462;52.446;-1.930;2022-10-16T03:41:17;99104.03125;;;;
44734;BME280;30462;52.446;-1.930;2022-10-16T03:42:18;99104.91016;;;;
44734;BME280;30462;52.446;-1.930;2022-10-16T03:43:18;99109.10156;;;;
44734;BME280;30462;52.446;-1.930;2022-10-16T03:44:17;99114.45703;;;;
44734;BME280;30462;52.446;-1.930;2022-10-16T03:45:18;99115.42188;;;;
44734;BME280;30462;52.446;-1.930;2022-10-16T03:46:18;99114.16016;;;;
44734;BME280;30462;52.446;-1.930;2022-10-16T03:47:18;99112.99219;;;;
44734;BME280;30462;52.446;-1.930;2022-10-16T03:48:18;99119.01563;;;;
44734;BME280;30462;52.446;-1.930;2022-10-16T03:49:18;99116.83594;;;;
44734;BME280;30462;52.446;-1.930;2022-10-16T03:50:18;99122.79297;;;;
44734;BME280;30462;52.446;-1.930;2022-10-16T03:51:18;99121.58984;;;;
44734;BME280;30462;52.446;-1.930;2022-10-16T03:52:18;99118.95313;;;;
44734;BME280;30462;52.446;-1.930;2022-10-16T03:53:18;99123.69141;;;;
44734;BME280;30462;52.446;-1.930;2022-10-16T03:54:18;99124.37891;;;;
44734;BME280;30462;52.446;-1.930;2022-10-16T03:55:17;99125.74609;;;;
44734;BME280;30462;52.446;-1.930;2022-10-16T03:56:18;99123.16797;;;;
44734;BME280;30462;52.446;-1.930;2022-10-16T03:57:18;99128.8125;;;;
44734;BME280;30462;52.446;-1.930;2022-10-16T03:58:18;99131.02734;;;;
44734;BME280;30462;52.446;-1.930;2022-10-16T03:59:18;99133.21094;;;;
44734;BME280;30462;52.446;-1.930;2022-10-16T04:00:18;99135.69141;;;;
44734;BME280;30462;52.446;-1.930;2022-10-16T04:01:18;99139.24219;;;;
44734;BME280;30462;52.446;-1.930;2022-10-16T04:02:18;99140.79688;;;;
44734;BME280;30462;52.446;-1.930;2022-10-16T04:03:18;99141.25781;;;;
44734;BME280;30462;52.446;-1.930;2022-10-16T04:04:18;99144.84766;;;;
44734;BME280;30462;52.446;-1.930;2022-10-16T04:05:18;99139.71484;;;;
44734;BME280;30462;52.446;-1.930;2022-10-16T04:06:18;99149.48438;;;;
44734;BME280;30462;52.446;-1.930;2022-10-16T04:07:18;99153.44922;;;;
44734;BME280;30462;52.446;-1.930;2022-10-16T04:08:18;99154.39844;;;;
44734;BME280;30462;52.446;-1.930;2022-10-16T04:09:18;99156.71484;;;;
44734;BME280;30462;52.446;-1.930;2022-10-16T04:10:18;99160.92578;;;;
44734;BME280;30462;52.446;-1.930;2022-10-16T04:11:18;99161.69531;;;;
44734;BME280;30462;52.446;-1.930;2022-10-16T04:12:18;99163.99609;;;;
44734;BME280;30462;52.446;-1.930;2022-10-16T04:13:18;99168.875;;;;
44734;BME280;30462;52.446;-1.930;2022-10-16T04:14:17;99168.55078;;;;
44734;BME280;30462;52.446;-1.930;2022-10-16T04:15:18;99168.95703;;;;
44734;BME280;30462;52.446;-1.930;2022-10-16T04:16:18;99168.52344;;;;
44734;BME280;30462;52.446;-1.930;2022-10-16T04:17:17;99174.39844;;;;
44734;BME280;30462;52.446;-1.930;2022-10-16T04:18:18;99176.51953;;;;
44734;BME280;30462;52.446;-1.930;2022-10-16T04:19:18;99176.41406;;;;
44734;BME280;30462;52.446;-1.930;2022-10-16T04:20:18;99172.76172;;;;
44734;BME280;30462;52.446;-1.930;2022-10-16T04:21:18;99177.07031;;;;
44734;BME280;30462;52.446;-1.930;2022-10-16T04:22:18;99176.02734;;;;
44734;BME280;30462;52.446;-1.930;2022-10-16T04:23:18;99175.78516;;;;
44734;BME280;30462;52.446;-1.930;2022-10-16T04:24:18;99184.10156;;;;
44734;BME280;30462;52.446;-1.930;2022-10-16T04:25:17;99183.06641;;;;
44734;BME280;30462;52.446;-1.930;2022-10-16T04:26:18;99181.54297;;;;
44734;BME280;30462;52.446;-1.930;2022-10-16T04:27:18;99185.77734;;;;
44734;BME280;30462;52.446;-1.930;2022-10-16T04:28:18;99184.95703;;;;
44734;BME280;30462;52.446;-1.930;2022-10-16T04:29:18;99185.47656;;;;
44734;BME280;30462;52.446;-1.930;2022-10-16T04:30:17;99187.12109;;;;
44734;BME280;30462;52.446;-1.930;2022-10-16T04:31:18;99188.23828;;;;
44734;BME280;30462;52.446;-1.930;2022-10-16T04:32:18;99191.26953;;;;
44734;BME280;30462;52.446;-1.930;2022-10-16T04:33:17;99193.83203;;;;
44734;BME280;30462;52.446;-1.930;2022-10-16T04:34:18;99194.64844;;;;
44734;BME280;30462;52.446;-1.930;2022-10-16T04:35:18;99201.19141;;;;
44734;BME280;30462;52.446;-1.930;2022-10-16T04:36:18;99195.82031;;;;
44734;BME280;30462;52.446;-1.930;2022-10-16T04:37:18;99201.71094;;;;
44734;BME280;30462;52.446;-1.930;2022-10-16T04:38:18;99203.5625;;;;
44734;BME280;30462;52.446;-1.930;2022-10-16T04:39:18;99207.05469;;;;
44734;BME280;30462;52.446;-1.930;2022-10-16T04:40:18;99204.32813;;;;
44734;BME280;30462;52.446;-1.930;2022-10-16T04:41:18;99204.49609;;;;
44734;BME280;30462;52.446;-1.930;2022-10-16T04:42:18;99205.01563;;;;
44734;BME280;30462;52.446;-1.930;2022-10-16T04:43:18;99208.94531;;;;
44734;BME280;30462;52.446;-1.930;2022-10-16T04:44:18;99208.09375;;;;
44734;BME280;30462;52.446;-1.930;2022-10-16T04:45:17;99210.91016;;;;
44734;BME280;30462;52.446;-1.930;2022-10-16T04:46:18;99216.06641;;;;
44734;BME280;30462;52.446;-1.930;2022-10-16T04:47:18;99219.74609;;;;
44734;BME280;30462;52.446;-1.930;2022-10-16T04:48:17;99222.33594;;;;
44734;BME280;30462;52.446;-1.930;2022-10-16T04:49:18;99224.38281;;;;
44734;BME280;30462;52.446;-1.930;2022-10-16T04:50:18;99226.75391;;;;
44734;BME280;30462;52.446;-1.930;2022-10-16T04:51:17;99225.0625;;;;
44734;BME280;30462;52.446;-1.930;2022-10-16T04:52:18;99226.58984;;;;
44734;BME280;30462;52.446;-1.930;2022-10-16T04:53:18;99223.78516;;;;
44734;BME280;30462;52.446;-1.930;2022-10-16T04:54:17;99224.16406;;;;
44734;BME280;30462;52.446;-1.930;2022-10-16T04:55:18;99229.94531;;;;
44734;BME280;30462;52.446;-1.930;2022-10-16T04:56:18;99230.65625;;;;
44734;BME280;30462;52.446;-1.930;2022-10-16T04:57:17;99238.55859;;;;
44734;BME280;30462;52.446;-1.930;2022-10-16T04:58:18;99242.29688;;;;
44734;BME280;30462;52.446;-1.930;2022-10-16T04:59:18;99244.39844;;;;
44734;BME280;30462;52.446;-1.930;2022-10-16T05:00:18;99244.66797;;;;
44734;BME280;30462;52.446;-1.930;2022-10-16T05:01:18;99244.61328;;;;
44734;BME280;30462;52.446;-1.930;2022-10-16T05:02:18;99248.75781;;;;
44734;BME280;30462;52.446;-1.930;2022-10-16T05:03:18;99248.56641;;;;
44734;BME280;30462;52.446;-1.930;2022-10-16T05:04:18;99259.27734;;;;
44734;BME280;30462;52.446;-1.930;2022-10-16T05:05:18;99265.79688;;;;
44734;BME280;30462;52.446;-1.930;2022-10-16T05:06:18;99268.08594;;;;
44734;BME280;30462;52.446;-1.930;2022-10-16T05:07:18;99269.09375;;;;
44734;BME280;30462;52.446;-1.930;2022-10-16T05:08:18;99273.65234;;;;
44734;BME280;30462;52.446;-1.930;2022-10-16T05:09:18;99277.46484;;;;
44734;BME280;30462;52.446;-1.930;2022-10-16T05:10:18;99281.17578;;;;
44734;BME280;30462;52.446;-1.930;2022-10-16T05:11:18;99284.79688;;;;
44734;BME280;30462;52.446;-1.930;2022-10-16T05:12:18;99286.30078;;;;
44734;BME280;30462;52.446;-1.930;2022-10-16T05:13:18;99293.00781;;;;
44734;BME280;30462;52.446;-1.930;2022-10-16T05:14:18;99293.44531;;;;
44734;BME280;30462;52.446;-1.930;2022-10-16T05:15:18;99297.02344;;;;
44734;BME280;30462;52.446;-1.930;2022-10-16T05:16:18;99295.38672;;;;
44734;BME280;30462;52.446;-1.930;2022-10-16T05:17:18;99299.95703;;;;
44734;BME280;30462;52.446;-1.930;2022-10-16T05:18:18;99298.35547;;;;
44734;BME280;30462;52.446;-1.930;2022-10-16T05:19:18;99300.17578;;;;
44734;BME280;30462;52.446;-1.930;2022-10-16T05:20:18;99300.61328;;;;
44734;BME280;30462;52.446;-1.930;2022-10-16T05:21:17;99299.51953;;;;
44734;BME280;30462;52.446;-1.930;2022-10-16T05:22:18;99304.86328;;;;
44734;BME280;30462;52.446;-1.930;2022-10-16T05:23:18;99304.32031;;;;
44734;BME280;30462;52.446;-1.930;2022-10-16T05:24:18;99305.21094;;;;
44734;BME280;30462;52.446;-1.930;2022-10-16T05:25:18;99308.15625;;;;
44734;BME280;30462;52.446;-1.930;2022-10-16T05:26:18;99309.59375;;;;
44734;BME280;30462;52.446;-1.930;2022-10-16T05:27:18;99311.55859;;;;
44734;BME280;30462;52.446;-1.930;2022-10-16T05:28:18;99317.77344;;;;
44734;BME280;30462;52.446;-1.930;2022-10-16T05:29:18;99322.46094;;;;
44734;BME280;30462;52.446;-1.930;2022-10-16T05:30:18;99325.73438;;;;
44734;BME280;30462;52.446;-1.930;2022-10-16T05:31:18;99330.00391;;;;
44734;BME280;30462;52.446;-1.930;2022-10-16T05:32:18;99329.33203;;;;
44734;BME280;30462;52.446;-1.930;2022-10-16T05:33:19;99335.73047;;;;
44734;BME280;30462;52.446;-1.930;2022-10-16T05:34:18;99338.62109;;;;
44734;BME280;30462;52.446;-1.930;2022-10-16T05:35:18;99336.05859;;;;
44734;BME280;30462;52.446;-1.930;2022-10-16T05:36:18;99339.27344;;;;
44734;BME280;30462;52.446;-1.930;2022-10-16T05:37:18;99342.60156;;;;
44734;BME280;30462;52.446;-1.930;2022-10-16T05:38:17;99346.43359;;;;
44734;BME280;30462;52.446;-1.930;2022-10-16T05:39:18;99350.6875;;;;
44734;BME280;30462;52.446;-1.930;2022-10-16T05:40:18;99352.92188;;;;
44734;BME280;30462;52.446;-1.930;2022-10-16T05:41:18;99353.11719;;;;
44734;BME280;30462;52.446;-1.930;2022-10-16T05:42:18;99352.05078;;;;
44734;BME280;30462;52.446;-1.930;2022-10-16T05:43:18;99353.06641;;;;
44734;BME280;30462;52.446;-1.930;2022-10-16T05:44:18;99350.72266;;;;
44734;BME280;30462;52.446;-1.930;2022-10-16T05:45:18;99355.30469;;;;
44734;BME280;30462;52.446;-1.930;2022-10-16T05:46:18;99355.51953;;;;
44734;BME280;30462;52.446;-1.930;2022-10-16T05:47:18;99351.99219;;;;
44734;BME280;30462;52.446;-1.930;2022-10-16T05:48:18;99357.08203;;;;
44734;BME280;30462;52.446;-1.930;2022-10-16T05:49:18;99354.91406;;;;
44734;BME280;30462;52.446;-1.930;2022-10-16T05:50:18;99358.34766;;;;
44734;BME280;30462;52.446;-1.930;2022-10-16T05:51:18;99358.69531;;;;